Pagina principale
METAR-TAF:

METAR-TAF

Aeroporti :

Vršac, Serbia

latitudine: 45-09N, longitudine: 021-19E, altezza: 83 m

Osservazione

Il bollettino è stato emesso 45 minuti fa, alle 01:00 UTC
Vento 2 kt da nord
Temperature 19°C
Umidità 100%
Pressione 1018 hPa
Visibilità 10 km o più
nessuna nube inferiore a 1500 m e nessun cumulonembo

METAR: LYVR 210100Z AUTO 01002KT CAVOK 19/19 Q1018

Ora: 03:45 (01:45 UTC)

Previsione

Il bollettino è stato emesso 2 ore e 45 minuti fa, alle 23:00 UTC
Previsione valida dal 21 alle 00 UTC al 21 alle 24 UTC
Vento 5 kt da nord/nord-est
Visibilità 10 km o più
nessuna nube inferiore a 1500 m e nessun cumulonembo
Evoluzione graduale
dal 21 alle 03 UTC al 21 alle 05 UTC
Vento 10 kt da sud/sud-est
Temporaneamente
dal 21 alle 05 UTC al 21 alle 10 UTC
Vento 20 kt da sud/sud-est con raffiche fino a 30 kt

TAF: LYVR 202300Z 2100/2124 03005KT CAVOK TX37/2114Z TN18/2103Z BECMG 2103/2105 16010KT TEMPO 2105/2110 16020G30KT

Osservazioni e previsioni meteorologiche di più di 4000 aeroporti (messaggi METAR e TAF).

Le stazioni disponibili sono rappresentate dai dischi gialli e rossi sulla carta.

Puntare il mouse per vedere il nome della stazione.

Clicca sopra per visualizzare le osservazioni e previsioni meteorologiche.

Per cambiare la mappa : fare clic sui pulsanti verdi con una croce nera per ingrandire, il pulsante verde con un trattino per diminuire, o sulla freccia verde per le mappe adiacenti.


METAR-TAF: